Latest Weather Observations for Hamilton Island

IDQ60801

Issued at 5:05 am EST Thursday 24 April 2014 (issued every 30 minutes, with the page automatically refreshed every 10 minutes)

About weather observations | Map of weather stations | Latest weather observations for QLD | Other Formats
Station Details ID: 033106 Name: HAMILTON ISLAND AIRPORT Lat: -20.37 Lon: 148.95 Height: 58.66 m
Data from the previous 72 hours. | See also: Recent months at Hamilton Island
Date/Time
EST
Temp
°C
App
Temp
°C
Dew
Point
Rel
Hum
%
Delta-T
°C
Wind Press
QNH
hPa
Press
MSL
hPa
Rain
since 9 am
mm
Dir
 
Spd
km/h
Gust
km/h
Spd
kts
Gust
kts
24/05:00am 23.9 22.1 21.2 85 1.8 ESE 32 35 17 19 1013.2 - 21.6
24/04:30am 24.0 22.4 21.5 86 1.7 ESE 32 37 17 20 1013.3 - 21.6
24/04:00am 24.2 22.2 21.1 83 2.0 ESE 33 41 18 22 1012.9 - 21.6
24/03:30am 24.3 21.9 21.0 82 2.2 ESE 35 41 19 22 1013.3 - 21.6
24/03:00am 24.0 21.3 20.5 81 2.3 ESE 35 46 19 25 1012.9 1012.6 21.6
24/02:30am 24.0 22.2 21.1 84 1.9 ESE 32 39 17 21 1013.5 - 21.6
24/02:02am 23.6 21.7 20.9 85 1.8 ESE 32 39 17 21 1013.8 - 21.6
24/02:00am 23.8 21.9 21.3 86 1.6 ESE 33 39 18 21 1013.8 - 21.6
24/01:52am 23.8 21.7 20.9 84 1.9 ESE 33 39 18 21 1013.6 - 21.6
24/01:45am 23.9 21.9 21.2 85 1.8 E 33 39 18 21 1013.7 - 21.6
24/01:30am 23.8 21.1 21.3 86 1.6 ESE 37 43 20 23 1013.9 - 21.6
24/01:00am 23.8 20.2 21.7 88 1.4 E 43 48 23 26 1013.9 - 21.6
24/12:37am 23.7 20.8 22.3 92 0.9 ESE 41 54 22 29 1014.1 - 21.6
24/12:30am 23.6 20.9 22.0 91 1.1 ESE 39 50 21 27 1014.2 - 21.6
24/12:20am 23.7 20.3 22.1 91 1.1 E 43 52 23 28 1014.1 - 21.4
24/12:00am 23.1 19.8 22.3 95 0.5 ESE 43 46 23 25 1014.5 1014.3 21.4
 
Date/Time
EST
Temp
°C
App
Temp
°C
Dew
Point
Rel
Hum
%
Delta-T
°C
Wind Press
QNH
hPa
Press
MSL
hPa
Rain
since 9 am
mm
Dir
 
Spd
km/h
Gust
km/h
Spd
kts
Gust
kts
23/11:43pm 23.3 22.0 22.5 95 0.5 ESE 33 41 18 22 1014.6 - 21.2
23/11:41pm 23.2 21.9 22.4 95 0.5 ESE 33 41 18 22 1014.6 - 21.2
23/11:32pm 23.0 21.6 22.3 96 0.5 ESE 33 41 18 22 1014.8 - 21.2
23/11:30pm 23.0 21.6 22.3 96 0.5 ESE 33 39 18 21 1014.8 - 21.2
23/11:00pm 23.1 20.7 21.9 93 0.8 ESE 37 48 20 26 1015.3 - 20.0
23/10:30pm 23.9 21.5 21.8 88 1.4 ESE 37 43 20 23 1015.3 - 19.8
23/10:00pm 24.0 21.9 22.3 90 1.1 ESE 37 46 20 25 1015.4 - 19.8
23/09:37pm 23.8 21.6 22.2 91 1.1 ESE 37 43 20 23 1015.3 - 19.8
23/09:30pm 23.6 21.4 22.2 92 0.9 SE 37 43 20 23 1015.3 - 19.8
23/09:22pm 23.5 21.8 22.5 94 0.7 SE 35 43 19 23 1015.4 - 19.8
23/09:12pm 23.3 20.8 22.3 94 0.7 SE 39 50 21 27 1015.5 - 19.8
23/09:00pm 23.4 20.9 22.4 94 0.7 ESE 39 44 21 24 1015.2 1015.0 19.8
23/08:48pm 23.6 21.4 22.2 92 0.9 SE 37 43 20 23 1015.2 - 19.6
23/08:30pm 24.2 21.2 22.1 88 1.4 SE 41 46 22 25 1014.9 - 19.2
23/08:00pm 23.7 20.6 22.0 90 1.1 SE 41 50 22 27 1014.8 - 19.2
23/07:38pm 24.0 22.4 22.6 92 0.9 SE 35 46 19 25 1014.7 - 19.2
23/07:35pm 24.0 22.4 22.6 92 0.9 SE 35 46 19 25 1014.6 - 19.2
23/07:30pm 24.0 22.1 22.8 93 0.8 SE 37 46 20 25 1014.5 - 19.2
23/07:00pm 24.1 21.3 22.5 91 1.1 SE 41 48 22 26 1014.1 - 19.2
23/06:45pm 24.0 21.8 22.1 89 1.3 SE 37 48 20 26 1013.9 - 19.2
23/06:41pm 24.1 21.9 22.2 89 1.3 SE 37 43 20 23 1013.9 - 19.2
23/06:30pm 24.0 21.0 22.1 89 1.3 SE 41 46 22 25 1013.8 - 19.2
23/06:00pm 24.0 21.9 22.4 91 1.1 SE 37 43 20 23 1013.4 1013.1 19.2
23/05:30pm 23.8 21.2 22.2 91 1.1 SE 39 46 21 25 1013.0 - 19.2
23/05:00pm 23.6 21.1 22.4 93 0.8 SE 39 46 21 25 1013.0 - 19.2
23/04:30pm 23.5 19.8 22.5 94 0.7 SE 46 54 25 29 1012.7 - 19.2
23/04:00pm 23.3 19.2 22.5 95 0.5 SE 48 56 26 30 1012.6 - 19.2
23/03:30pm 23.2 20.4 22.4 95 0.5 SSE 41 48 22 26 1013.1 - 19.0
23/03:00pm 23.1 19.7 22.4 96 0.5 SSE 44 50 24 27 1013.2 1012.9 19.0
23/02:59pm 23.2 19.8 22.5 96 0.5 SSE 44 50 24 27 1013.2 - 19.0
23/02:30pm 23.4 21.1 22.7 96 0.5 SE 39 46 21 25 1013.2 - 18.4
23/02:00pm 23.6 22.2 22.9 96 0.5 SSE 35 43 19 23 1013.3 - 15.6
23/01:30pm 23.7 21.2 23.0 96 0.5 SSE 41 46 22 25 1013.3 - 15.2
23/01:29pm 23.7 21.2 23.0 96 0.5 SSE 41 46 22 25 1013.2 - 15.2
23/01:00pm 23.7 22.3 23.0 96 0.5 SSE 35 46 19 25 1013.6 - 14.0
23/12:58pm 23.5 22.0 22.8 96 0.5 SSE 35 46 19 25 1013.6 - 14.0
23/12:30pm 23.5 23.0 22.8 96 0.5 S 30 39 16 21 1014.1 - 10.2
23/12:15pm 23.8 22.2 22.6 93 0.8 SSE 35 46 19 25 1014.4 - 1.0
23/12:00pm 24.4 23.2 22.7 90 1.1 SSE 33 43 18 23 1014.4 1014.1 0.0
23/11:53am 24.8 23.5 22.5 87 1.5 SSE 33 39 18 21 1014.6 - 0.0
23/11:30am 25.5 24.3 22.6 84 2.0 SE 33 39 18 21 1014.9 - 0.0
23/11:21am 25.7 23.7 22.6 83 2.1 SE 37 43 20 23 1015.0 - 0.0
23/11:00am 25.2 24.0 22.7 86 1.7 SE 33 39 18 21 1015.3 - 0.0
23/10:30am 25.4 23.9 22.7 85 1.8 SE 35 41 19 22 1015.4 - 0.0
23/10:00am 25.2 23.7 22.7 86 1.7 SE 35 43 19 23 1015.6 - 0.0
23/09:30am 25.3 23.5 22.2 83 2.1 SE 35 43 19 23 1015.6 - 0.0
23/09:19am 25.5 23.9 22.6 84 2.0 SE 35 39 19 21 1015.4 - 0.0
23/09:00am 25.3 24.0 22.4 84 1.9 SE 33 37 18 20 1015.4 1015.2 3.0
23/08:44am 25.1 24.0 22.8 87 1.6 SE 33 39 18 21 1015.3 - 3.0
23/08:30am 24.8 23.0 22.3 86 1.7 SE 35 41 19 22 1015.3 - 3.0
23/08:00am 24.3 23.3 22.7 91 1.1 SE 32 37 17 20 1015.1 - 3.0
23/07:52am 24.3 23.4 22.9 92 0.9 SE 32 37 17 20 1015.2 - 3.0
23/07:41am 24.0 22.4 22.6 92 0.9 SE 35 41 19 22 1015.1 - 3.0
23/07:30am 23.8 22.2 22.6 93 0.8 SE 35 41 19 22 1014.9 - 3.0
23/07:28am 23.8 21.8 22.6 93 0.8 SE 37 41 20 22 1014.9 - 3.0
23/07:19am 23.6 21.6 22.6 94 0.7 SE 37 43 20 23 1015.2 - 3.0
23/07:06am 23.3 20.9 22.5 95 0.5 SE 39 44 21 24 1014.9 - 3.0
23/07:00am 23.4 21.4 22.6 95 0.5 SE 37 43 20 23 1015.0 - 3.0
23/06:36am 23.4 21.2 22.2 93 0.8 SE 37 52 20 28 1014.9 - 2.0
23/06:30am 23.7 21.6 22.3 92 0.9 SE 37 46 20 25 1014.8 - 1.8
23/06:01am 23.1 20.9 21.5 91 1.1 SE 35 44 19 24 1014.7 - 1.6
23/06:00am 23.2 21.1 21.6 91 1.1 SE 35 44 19 24 1014.6 1014.4 1.6
23/05:30am 23.6 21.5 21.7 89 1.3 SE 35 41 19 22 1014.7 - 1.0
23/05:00am 24.1 22.9 22.2 89 1.3 SE 32 37 17 20 1014.7 - 0.6
23/04:31am 23.6 22.1 22.0 91 1.1 SE 33 39 18 21 1014.7 - 0.6
23/04:30am 23.8 22.5 22.4 92 0.9 SE 33 39 18 21 1014.7 - 0.6
23/04:14am 24.7 22.9 22.2 86 1.7 SE 35 43 19 23 1014.6 - 0.4
23/04:00am 24.7 23.1 21.8 84 1.9 SE 33 39 18 21 1014.5 - 0.4
23/03:30am 24.5 23.0 21.8 85 1.8 SE 32 39 17 21 1014.5 - 0.4
23/03:25am 24.6 23.0 21.9 85 1.8 SE 33 39 18 21 1014.4 - 0.4
23/03:00am 24.5 22.9 21.8 85 1.8 SE 33 41 18 22 1014.6 1014.4 0.4
23/02:51am 24.7 22.7 21.8 84 1.9 SE 35 41 19 22 1014.8 - 0.4
23/02:37am 24.7 23.2 22.0 85 1.8 SE 33 39 18 21 1014.8 - 0.4
23/02:30am 24.7 23.3 22.0 85 1.8 ESE 32 35 17 19 1014.7 - 0.4
23/02:00am 24.6 23.7 22.1 86 1.7 SE 30 37 16 20 1015.1 - 0.4
23/01:57am 24.4 23.1 22.1 87 1.5 SE 32 35 17 19 1015.2 - 0.4
23/01:51am 24.5 23.0 22.0 86 1.7 SE 33 39 18 21 1015.1 - 0.4
23/01:37am 24.5 23.6 22.2 87 1.5 SE 30 33 16 18 1015.3 - 0.4
23/01:30am 24.4 23.6 22.3 88 1.4 SE 30 33 16 18 1015.4 - 0.4
23/01:00am 24.6 23.3 22.1 86 1.7 SE 32 35 17 19 1015.6 - 0.4
23/12:30am 24.1 23.2 22.2 89 1.3 SE 30 32 16 17 1016.1 - 0.4
23/12:00am 24.2 22.5 21.7 86 1.7 ESE 33 44 18 24 1016.3 1016.1 0.4
 
Date/Time
EST
Temp
°C
App
Temp
°C
Dew
Point
Rel
Hum
%
Delta-T
°C
Wind Press
QNH
hPa
Press
MSL
hPa
Rain
since 9 am
mm
Dir
 
Spd
km/h
Gust
km/h
Spd
kts
Gust
kts
22/11:30pm 24.2 23.1 21.7 86 1.7 SE 30 35 16 19 1016.4 - 0.4
22/11:00pm 24.8 23.1 21.7 83 2.1 SE 33 37 18 20 1016.8 - 0.2
22/10:30pm 24.7 23.6 21.8 84 1.9 SE 30 35 16 19 1016.8 - 0.2
22/10:00pm 24.5 22.8 21.4 83 2.1 ESE 32 35 17 19 1016.7 - 0.2
22/09:30pm 24.1 22.3 21.6 86 1.7 SE 33 43 18 23 1016.8 - 0.0
22/09:00pm 24.6 22.7 21.3 82 2.2 ESE 33 37 18 20 1016.9 1016.7 0.0
22/08:30pm 24.4 22.7 21.3 83 2.0 ESE 32 39 17 21 1016.8 - 0.0
22/08:00pm 25.1 23.6 21.0 78 2.7 ESE 30 35 16 19 1017.0 - 0.0
22/07:30pm 24.9 25.1 21.4 81 2.3 SE 22 26 12 14 1016.9 - 0.0
22/07:00pm 24.7 23.6 21.0 80 2.4 ESE 28 35 15 19 1016.5 - 0.0
22/06:30pm 24.3 23.5 20.8 81 2.3 ESE 26 32 14 17 1016.1 - 0.0
22/06:00pm 25.0 24.4 20.5 76 2.9 SE 24 28 13 15 1016.1 1015.9 0.0
22/05:30pm 25.0 23.4 19.1 70 3.8 ESE 26 30 14 16 1016.0 - 0.0
22/05:00pm 25.0 23.7 19.1 70 3.8 SE 24 30 13 16 1015.8 - 0.0
22/04:30pm 25.2 23.3 18.6 67 4.2 SE 26 32 14 17 1015.8 - 0.0
22/04:00pm 25.2 23.2 18.2 65 4.4 ESE 26 30 14 16 1015.7 - 0.0
22/03:30pm 25.5 23.7 18.7 66 4.3 ESE 26 30 14 16 1015.7 - 0.0
22/03:00pm 25.6 22.9 17.5 61 5.1 ESE 28 33 15 18 1015.7 1015.5 0.0
22/02:30pm 26.3 24.6 18.9 63 4.7 ESE 26 32 14 17 1015.8 - 0.0
22/02:00pm 26.2 23.9 17.6 59 5.4 ESE 26 32 14 17 1016.0 - 0.0
22/01:30pm 25.9 23.4 18.1 62 4.9 ESE 28 35 15 19 1016.3 - 0.0
22/01:00pm 26.7 24.3 18.3 60 5.3 ESE 28 32 15 17 1016.4 - 0.0
22/12:30pm 26.5 23.9 17.8 58 5.5 ESE 28 32 15 17 1016.7 - 0.0
22/12:00pm 26.8 24.5 18.4 60 5.4 ESE 28 32 15 17 1017.0 1016.8 0.0
22/11:30am 25.6 23.0 17.8 62 4.9 ESE 28 33 15 18 1017.5 - 0.0
22/11:00am 26.6 24.9 19.0 63 4.9 E 26 33 14 18 1017.9 - 0.0
22/10:30am 27.2 26.0 19.3 62 5.1 E 24 30 13 16 1018.4 - 0.0
22/10:00am 26.8 23.5 17.0 55 6.1 ESE 30 33 16 18 1018.5 - 0.0
22/09:30am 26.4 22.4 16.3 53 6.2 ESE 32 35 17 19 1018.7 - 0.0
22/09:00am 26.0 21.9 16.0 54 6.1 ESE 32 37 17 20 1018.5 1018.3 0.0
22/08:30am 26.0 22.7 17.1 58 5.6 E 30 35 16 19 1018.4 - 0.0
22/08:00am 25.8 22.1 17.4 59 5.3 E 33 39 18 21 1018.0 - 0.0
22/07:30am 25.4 20.9 16.5 58 5.5 E 35 41 19 22 1017.8 - 0.0
22/07:00am 25.1 20.2 15.4 55 5.9 E 35 39 19 21 1017.6 - 0.0
22/06:30am 24.5 19.9 14.6 54 5.9 ESE 32 37 17 20 1017.4 - 0.0
22/06:00am 24.5 19.2 15.4 57 5.5 E 37 43 20 23 1017.0 1016.8 0.0
22/05:30am 24.6 18.3 14.7 54 5.9 E 41 46 22 25 1016.5 - 0.0
22/05:00am 24.6 18.2 15.8 58 5.3 E 44 50 24 27 1016.3 - 0.0
22/04:30am 24.6 18.7 15.8 58 5.3 E 41 48 22 26 1016.3 - 0.0
22/04:00am 24.7 19.0 16.2 59 5.2 E 41 48 22 26 1016.4 - 0.0
22/03:30am 24.8 19.8 17.0 62 4.8 E 39 50 21 27 1016.5 - 0.0
22/03:00am 24.8 19.3 15.7 57 5.5 E 39 46 21 25 1016.4 1016.2 0.0
22/02:30am 24.9 19.6 16.3 59 5.3 E 39 46 21 25 1016.5 - 0.0
22/02:00am 24.9 19.1 16.1 58 5.4 E 41 44 22 24 1016.7 - 0.0
22/01:30am 24.9 20.0 17.4 63 4.7 E 39 46 21 25 1017.1 - 0.0
22/01:00am 24.8 20.2 18.0 66 4.3 E 39 48 21 26 1017.3 - 0.0
22/12:30am 24.9 20.4 18.3 66 4.2 E 39 46 21 25 1017.6 - 0.0
22/12:00am 25.0 21.1 18.7 68 4.0 E 37 44 20 24 1017.9 1017.7 0.0
 
Date/Time
EST
Temp
°C
App
Temp
°C
Dew
Point
Rel
Hum
%
Delta-T
°C
Wind Press
QNH
hPa
Press
MSL
hPa
Rain
since 9 am
mm
Dir
 
Spd
km/h
Gust
km/h
Spd
kts
Gust
kts
21/11:30pm 25.0 21.7 18.4 66 4.2 E 33 41 18 22 1017.8 - 0.0
21/11:00pm 24.9 21.7 19.5 72 3.5 E 35 41 19 22 1018.1 - 0.0
21/10:30pm 24.8 21.6 18.7 69 3.9 ESE 33 41 18 22 1018.2 - 0.0
21/10:00pm 24.6 21.3 18.3 68 4.0 ESE 33 39 18 21 1018.3 - 0.0
21/09:30pm 24.7 21.4 17.9 66 4.3 ESE 32 37 17 20 1018.3 - 0.0
21/09:00pm 24.7 21.0 17.4 64 4.5 ESE 33 39 18 21 1018.3 1018.1 0.0
21/08:30pm 24.7 20.4 17.7 65 4.4 ESE 37 41 20 22 1018.4 - 0.0
21/08:00pm 24.9 20.7 17.1 62 4.8 ESE 35 43 19 23 1018.3 - 0.0
21/07:30pm 25.1 20.8 16.0 57 5.6 E 33 41 18 22 1018.2 - 0.0
21/07:00pm 24.8 20.6 16.2 58 5.3 ESE 33 39 18 21 1018.0 - 0.0
21/06:30pm 25.0 20.7 17.0 61 5.0 ESE 35 43 19 23 1017.6 - 0.0
21/06:00pm 25.0 20.8 17.2 62 4.8 ESE 35 43 19 23 1017.5 1017.3 0.0
21/05:30pm 25.1 21.7 18.1 65 4.4 ESE 33 39 18 21 1017.1 - 0.0
21/05:00pm 25.1 21.1 17.6 63 4.7 ESE 35 46 19 25 1016.6 - 0.0
21/04:30pm 25.2 21.1 18.2 65 4.4 ESE 37 44 20 24 1016.2 - 0.0
21/04:00pm 25.5 21.0 17.4 61 5.1 ESE 37 50 20 27 1016.0 - 0.0
21/03:30pm 25.5 21.7 18.2 64 4.6 ESE 35 43 19 23 1016.1 - 0.0
21/03:00pm 26.0 21.5 17.4 59 5.4 ESE 37 41 20 22 1016.2 1016.0 0.0
21/02:30pm 26.2 22.6 17.6 59 5.4 ESE 33 41 18 22 1016.1 - 0.0
21/02:00pm 25.7 21.6 17.4 60 5.2 ESE 35 46 19 25 1016.2 - 0.0
21/01:30pm 26.1 22.9 18.5 63 4.8 ESE 33 41 18 22 1016.6 - 0.0
21/01:00pm 26.5 23.3 18.1 60 5.3 ESE 32 37 17 20 1016.8 - 0.0
21/12:30pm 26.7 23.6 17.5 57 5.8 ESE 30 35 16 19 1017.0 - 0.0
21/12:00pm 26.8 23.4 16.7 54 6.3 ESE 30 35 16 19 1017.3 1017.1 0.0
21/11:30am 26.6 22.5 15.9 51 6.6 ESE 32 41 17 22 1017.6 - 0.0
21/11:00am 26.4 22.7 16.9 56 5.9 E 32 39 17 21 1018.1 - 0.0
21/10:30am 26.4 22.4 16.6 55 6.1 E 33 41 18 22 1018.5 - 0.0
21/10:00am 26.3 21.5 16.5 54 6.1 E 37 44 20 24 1018.5 - 0.0
21/09:30am 25.2 22.4 17.4 62 4.9 ESE 28 35 15 19 1018.5 - 0.0
21/09:00am 25.2 21.4 16.6 59 5.3 ESE 32 37 17 20 1018.4 1018.2 0.0
21/08:30am 25.3 21.1 15.6 55 5.9 ESE 32 37 17 20 1018.2 - 0.0
21/08:00am 25.3 21.3 16.2 57 5.6 E 32 35 17 19 1018.2 - 0.0
21/07:30am 25.3 21.7 16.2 57 5.6 ESE 30 35 16 19 1017.9 - 0.0
21/07:00am 24.7 20.7 16.2 59 5.2 E 32 35 17 19 1017.6 - 0.0
21/06:30am 24.4 20.7 15.9 59 5.2 E 30 35 16 19 1017.4 - 0.0
21/06:00am 24.0 22.3 17.3 66 4.2 ESE 22 26 12 14 1016.9 1016.7 0.0
21/05:30am 24.0 21.4 16.0 61 4.9 ESE 24 30 13 16 1016.7 - 0.0

Other Formats:

Comma delimited format used in spreadsheet applications
http://www.bom.gov.au/fwo/IDQ60801/IDQ60801.94368.axf

JavaScript Object Notation format (JSON) in row-major order
http://www.bom.gov.au/fwo/IDQ60801/IDQ60801.94368.json